Time;durP1;ratioP1;P1;durP2;ratioP2;P2;SDS_P1;SDS_P2;PMS_P1;PMS_P2;Temp;Humidity;BMP_temperature;BMP_pressure;BME280_temperature;BME280_humidity;BME280_pressure;Samples;Min_cycle;Max_cycle;Signal;HPM_P1;HPM_P2
2021/03/25 04:46:26;;;;;;;8.18;5.55;;;;;;;0.33;56.85;94599.11;828126;71;29685;-76
2021/03/25 05:01:15;;;;;;;15.65;11.50;;;;;;;0.29;58.10;94624.30;827854;71;30243;-75
2021/03/25 05:16:12;;;;;;;21.82;13.72;;;;;;;0.26;58.74;94637.11;828051;71;30858;-77
2021/03/25 05:31:26;;;;;;;21.20;15.05;;;;;;;2.00;57.91;94629.83;811791;71;32865;-76
2021/03/25 05:46:29;;;;;;;14.45;10.55;;;;;;;5.40;50.15;94635.09;828187;71;29746;-75
2021/03/25 06:01:48;;;;;;;13.45;9.30;;;;;;;7.19;45.38;94642.11;826974;71;33185;-76
2021/03/25 06:16:38;;;;;;;14.70;10.45;;;;;;;9.47;41.67;94645.48;817781;71;30317;-75
2021/03/25 06:31:17;;;;;;;13.80;10.80;;;;;;;11.22;39.01;94648.80;823387;71;34913;-75
2021/03/25 06:46:30;;;;;;;7.87;6.50;;;;;;;12.39;36.70;94649.63;815611;71;33554;-74
2021/03/25 07:01:28;;;;;;;8.40;6.42;;;;;;;12.77;35.11;94668.56;827980;71;32541;-76
2021/03/25 07:16:31;;;;;;;7.42;6.72;;;;;;;13.15;34.89;94665.59;819711;71;33326;-76
2021/03/25 07:31:14;;;;;;;12.55;9.35;;;;;;;13.64;34.56;94676.31;827061;71;32684;-73
2021/03/25 07:46:22;;;;;;;8.28;7.45;;;;;;;14.30;34.97;94676.45;833806;71;33211;-75
2021/03/25 08:01:12;;;;;;;5.70;5.20;;;;;;;14.59;34.22;94675.92;829207;71;29692;-77
2021/03/25 08:16:14;;;;;;;4.45;4.05;;;;;;;15.12;33.07;94668.81;833888;71;30671;-75
2021/03/25 08:31:27;;;;;;;5.22;4.72;;;;;;;15.29;30.25;94656.14;833573;71;32729;-76
2021/03/25 08:46:24;;;;;;;5.12;4.62;;;;;;;14.78;30.03;94645.27;833777;71;30240;-75
2021/03/25 09:16:14;;;;;;;6.65;5.95;;;;;;;13.80;29.04;94648.47;833722;71;31410;-75
2021/03/25 09:31:17;;;;;;;5.97;5.30;;;;;;;13.03;27.93;94648.23;833367;71;32670;-77
2021/03/25 09:46:30;;;;;;;6.83;5.60;;;;;;;13.38;29.63;94655.88;827979;71;29772;-76
2021/03/25 10:01:40;;;;;;;6.12;5.53;;;;;;;13.53;29.70;94662.62;823000;71;32696;-74
2021/03/25 10:16:36;;;;;;;6.80;6.00;;;;;;;12.93;29.74;94662.95;833787;71;32766;-76
2021/03/25 10:31:30;;;;;;;6.03;5.42;;;;;;;12.64;30.28;94668.05;828750;71;31998;-77
2021/03/25 10:46:09;;;;;;;6.35;5.28;;;;;;;12.54;31.22;94665.63;833840;71;29758;-77
2021/03/25 11:01:28;;;;;;;7.75;7.00;;;;;;;14.33;47.08;94665.27;826989;71;32700;-77
2021/03/25 11:16:20;;;;;;;7.20;5.75;;;;;;;13.67;30.19;94647.27;828241;71;30187;-76
2021/03/25 11:31:29;;;;;;;5.42;4.78;;;;;;;13.39;29.47;94640.83;827573;71;32751;-77
2021/03/25 11:46:32;;;;;;;7.10;4.95;;;;;;;13.47;28.59;94639.33;827085;71;33110;-74
2021/03/25 12:01:22;;;;;;;5.25;4.53;;;;;;;12.78;28.11;94606.14;827908;71;30165;-76
2021/03/25 12:16:12;;;;;;;6.70;5.42;;;;;;;12.94;29.42;94637.63;828684;71;30208;-75
2021/03/25 12:31:13;;;;;;;5.10;4.55;;;;;;;12.15;28.54;94629.57;834122;71;30928;-76
2021/03/25 12:46:10;;;;;;;6.42;5.62;;;;;;;11.91;29.44;94623.20;828120;71;30272;-76
2021/03/25 13:01:18;;;;;;;5.67;5.12;;;;;;;11.61;29.20;94616.62;827821;71;30390;-76
2021/03/25 13:16:10;;;;;;;5.47;4.97;;;;;;;11.12;29.18;94621.39;828277;71;30123;-77
2021/03/25 13:31:10;;;;;;;5.42;4.65;;;;;;;10.85;29.38;94618.14;827879;71;30257;-77
2021/03/25 13:46:09;;;;;;;5.70;5.20;;;;;;;10.47;29.75;94614.76;828143;71;29671;-76
2021/03/25 14:01:08;;;;;;;6.65;5.92;;;;;;;9.98;30.99;94614.80;828170;71;29683;-76
2021/03/25 14:16:08;;;;;;;6.35;4.95;;;;;;;9.70;31.39;94614.34;828255;71;29747;-74
2021/03/25 14:31:11;;;;;;;5.62;4.40;;;;;;;9.37;31.85;94607.07;828080;71;30312;-77
2021/03/25 14:46:08;;;;;;;6.12;5.40;;;;;;;8.79;33.81;94620.88;827857;71;29647;-76
2021/03/25 15:01:44;;;;;;;6.20;5.62;;;;;;;8.39;34.63;94628.43;827179;71;32729;-76
2021/03/25 15:16:09;;;;;;;8.78;6.60;;;;;;;7.97;36.19;94614.78;826675;71;29830;-76
2021/03/25 15:31:10;;;;;;;8.85;6.47;;;;;;;7.71;38.33;94636.29;828122;71;29687;-77
2021/03/25 15:46:14;;;;;;;13.03;8.00;;;;;;;7.23;40.60;94650.20;836420;70;33377;-76
